createdAt,value
2023-04-15T00:00:46.929Z,100245.84
2023-04-15T00:03:34.506Z,100252.69
2023-04-15T00:06:20.633Z,100245.59
2023-04-15T00:09:05.857Z,100245.69
2023-04-15T00:11:51.989Z,100246.69
2023-04-15T00:14:36.963Z,100238.09
2023-04-15T00:17:22.025Z,100235.34
2023-04-15T00:20:07.315Z,100230.13
2023-04-15T00:22:52.550Z,100228.94
2023-04-15T00:25:38.046Z,100226.63
2023-04-15T00:28:23.103Z,100224.16
2023-04-15T00:31:08.299Z,100221.72
2023-04-15T00:33:53.175Z,100227.72
2023-04-15T00:36:38.159Z,100226.03
2023-04-15T00:39:23.042Z,100223.72
2023-04-15T00:42:08.941Z,100227.34
2023-04-15T00:44:53.825Z,100224.44
2023-04-15T00:47:42.236Z,100216.16
2023-04-15T00:50:27.355Z,100222.09
2023-04-15T00:53:12.852Z,100220.06
2023-04-15T00:55:58.095Z,100218.59
2023-04-15T00:58:42.959Z,100219.50
2023-04-15T01:01:29.103Z,100212.75
2023-04-15T01:04:15.153Z,100216.28
2023-04-15T01:07:00.718Z,100207.59
2023-04-15T01:09:46.012Z,100217.53
2023-04-15T01:12:33.437Z,100219.09
2023-04-15T01:15:18.214Z,100213.13
2023-04-15T01:18:03.741Z,100209.91
2023-04-15T01:20:48.608Z,100204.22
2023-04-15T01:23:37.467Z,100194.84
2023-04-15T01:26:23.380Z,100196.66
2023-04-15T01:29:08.401Z,100200.22
2023-04-15T01:31:55.859Z,100192.63
2023-04-15T01:34:40.829Z,100191.84
2023-04-15T01:37:27.143Z,100187.69
2023-04-15T01:40:12.130Z,100181.47
2023-04-15T01:42:57.574Z,100184.19
2023-04-15T01:45:42.316Z,100177.88
2023-04-15T01:48:27.271Z,100177.84
2023-04-15T01:51:12.785Z,100178.72
2023-04-15T01:53:58.268Z,100177.06
2023-04-15T01:56:43.147Z,100171.28
2023-04-15T01:59:28.975Z,100175.72
2023-04-15T02:02:14.538Z,100170.44
2023-04-15T02:04:59.473Z,100165.28
2023-04-15T02:07:45.621Z,100170.53
2023-04-15T02:10:31.043Z,100161.88
2023-04-15T02:13:16.906Z,100164.44
2023-04-15T02:16:02.086Z,100164.31
2023-04-15T02:18:48.832Z,100162.59
2023-04-15T02:21:35.255Z,100160.88
2023-04-15T02:24:20.509Z,100157.50
2023-04-15T02:27:05.920Z,100162.56
2023-04-15T02:29:51.779Z,100163.31
2023-04-15T02:32:37.920Z,100164.19
2023-04-15T02:35:26.236Z,100166.66
2023-04-15T02:38:12.138Z,100168.53
2023-04-15T02:40:57.525Z,100172.66
2023-04-15T02:43:42.684Z,100176.22
2023-04-15T02:46:27.586Z,100176.25
2023-04-15T02:49:13.822Z,100174.44
2023-04-15T02:52:00.988Z,100170.25
2023-04-15T02:54:46.993Z,100179.00
2023-04-15T02:57:31.946Z,100178.03
2023-04-15T03:00:17.412Z,100174.53
2023-04-15T03:03:06.716Z,100175.44
2023-04-15T03:05:52.461Z,100185.66
2023-04-15T03:08:37.309Z,100179.53
2023-04-15T03:11:22.661Z,100178.00
2023-04-15T03:14:07.860Z,100175.25
2023-04-15T03:16:52.774Z,100176.88
2023-04-15T03:19:37.558Z,100172.72
2023-04-15T03:22:22.430Z,100169.41
2023-04-15T03:25:07.817Z,100177.88
2023-04-15T03:27:52.844Z,100177.31
2023-04-15T03:30:38.068Z,100166.16
2023-04-15T03:33:23.074Z,100163.31
2023-04-15T03:36:08.444Z,100163.94
2023-04-15T03:38:53.319Z,100159.09
2023-04-15T03:41:38.425Z,100160.91
2023-04-15T03:44:23.358Z,100157.44
2023-04-15T03:47:08.484Z,100160.03
2023-04-15T03:49:54.042Z,100154.84
2023-04-15T03:52:38.829Z,100158.41
2023-04-15T03:55:23.708Z,100160.84
2023-04-15T03:58:09.439Z,100158.44
2023-04-15T04:00:54.830Z,100153.31
2023-04-15T04:03:39.910Z,100147.31
2023-04-15T04:06:25.417Z,100153.25
2023-04-15T04:09:10.719Z,100159.19
2023-04-15T04:11:56.360Z,100153.31
2023-04-15T04:14:41.355Z,100152.31
2023-04-15T04:17:27.447Z,100151.66
2023-04-15T04:20:12.991Z,100153.41
2023-04-15T04:22:58.685Z,100151.72
2023-04-15T04:25:43.563Z,100146.47
2023-04-15T04:28:28.518Z,100148.19
2023-04-15T04:31:13.293Z,100150.81
2023-04-15T04:33:58.453Z,100150.00
2023-04-15T04:36:43.380Z,100155.00
2023-04-15T04:39:28.223Z,100145.56
2023-04-15T04:42:13.500Z,100152.50
2023-04-15T04:44:58.378Z,100140.28
2023-04-15T04:47:43.818Z,100141.09
2023-04-15T04:50:28.413Z,100144.69
2023-04-15T04:53:13.315Z,100142.84
2023-04-15T04:55:58.657Z,100142.03
2023-04-15T04:58:43.424Z,100142.78
2023-04-15T05:01:28.682Z,100145.44
2023-04-15T05:04:13.945Z,100146.41
2023-04-15T05:06:59.501Z,100146.41
2023-04-15T05:09:44.609Z,100146.47
2023-04-15T05:12:29.539Z,100149.00
2023-04-15T05:15:14.286Z,100148.16
2023-04-15T05:18:00.398Z,100152.47
2023-04-15T05:20:45.244Z,100143.84
2023-04-15T05:23:30.512Z,100159.41
2023-04-15T05:26:16.051Z,100163.63
2023-04-15T05:29:01.649Z,100162.78
2023-04-15T05:31:47.543Z,100173.13
2023-04-15T05:34:32.464Z,100173.16
2023-04-15T05:37:17.124Z,100172.25
2023-04-15T05:40:02.076Z,100175.59
2023-04-15T05:42:46.854Z,100181.63
2023-04-15T05:45:31.781Z,100176.34
2023-04-15T05:48:16.991Z,100176.34
2023-04-15T05:51:02.102Z,100173.88
2023-04-15T05:53:47.300Z,100163.41
2023-04-15T05:56:32.410Z,100165.84
2023-04-15T05:59:18.060Z,100171.22
2023-04-15T06:02:06.208Z,100173.75
2023-04-15T06:04:51.367Z,100179.81
2023-04-15T06:07:37.034Z,100175.34
2023-04-15T06:10:21.794Z,100177.97
2023-04-15T06:13:08.250Z,100179.63
2023-04-15T06:15:53.939Z,100187.47
2023-04-15T06:18:39.154Z,100197.78
2023-04-15T06:21:24.009Z,100208.13
2023-04-15T06:24:09.210Z,100191.59
2023-04-15T06:26:54.188Z,100195.97
2023-04-15T06:29:39.520Z,100198.50
2023-04-15T06:32:24.737Z,100194.94
2023-04-15T06:35:09.867Z,100204.53
2023-04-15T06:37:54.755Z,100204.41
2023-04-15T06:40:39.873Z,100199.16
2023-04-15T06:43:26.502Z,100209.47
2023-04-15T06:46:11.669Z,100202.56
2023-04-15T06:48:56.832Z,100205.88
2023-04-15T06:51:42.732Z,100204.19
2023-04-15T06:54:28.335Z,100205.13
2023-04-15T06:57:13.222Z,100198.94
2023-04-15T06:59:58.208Z,100200.69
2023-04-15T07:02:44.787Z,100200.75
2023-04-15T07:05:30.936Z,100198.94
2023-04-15T07:08:16.423Z,100205.88
2023-04-15T07:11:01.723Z,100204.97
2023-04-15T07:13:47.146Z,100202.25
2023-04-15T07:16:32.289Z,100205.72
2023-04-15T07:19:18.002Z,100208.34
2023-04-15T07:22:04.386Z,100207.38
2023-04-15T07:24:49.334Z,100209.03
2023-04-15T07:27:34.282Z,100209.03
2023-04-15T07:30:19.442Z,100212.41
2023-04-15T07:33:04.622Z,100218.56
2023-04-15T07:35:49.960Z,100229.75
2023-04-15T07:38:34.978Z,100216.69
2023-04-15T07:41:20.389Z,100224.59
2023-04-15T07:44:05.678Z,100219.38
2023-04-15T07:46:51.115Z,100226.28
2023-04-15T07:49:36.490Z,100226.28
2023-04-15T07:52:21.468Z,100226.94
2023-04-15T07:55:11.164Z,100227.75
2023-04-15T07:57:56.479Z,100227.72
2023-04-15T08:00:41.903Z,100233.88
2023-04-15T08:03:27.563Z,100236.41
2023-04-15T08:06:13.319Z,100231.88
2023-04-15T08:08:58.133Z,100229.38
2023-04-15T08:11:43.337Z,100243.16
2023-04-15T08:14:29.097Z,100243.88
2023-04-15T08:17:13.815Z,100241.31
2023-04-15T08:19:59.646Z,100244.78
2023-04-15T08:22:44.674Z,100253.31
2023-04-15T08:25:30.155Z,100252.47
2023-04-15T08:28:16.072Z,100257.56
2023-04-15T08:31:02.341Z,100255.88
2023-04-15T08:33:47.582Z,100260.94
2023-04-15T08:36:33.966Z,100260.09
2023-04-15T08:39:21.439Z,100268.53
2023-04-15T08:42:10.861Z,100266.09
2023-04-15T08:44:56.498Z,100272.28
2023-04-15T08:47:48.119Z,100272.28
2023-04-15T08:50:33.280Z,100275.75
2023-04-15T08:53:20.721Z,100279.19
2023-04-15T08:56:13.156Z,100272.16
2023-04-15T08:59:03.946Z,100270.31
2023-04-15T09:01:54.538Z,100278.19
2023-04-15T09:04:41.356Z,100281.84
2023-04-15T09:07:27.297Z,100290.47
2023-04-15T09:10:15.794Z,100284.28
2023-04-15T09:13:02.773Z,100298.16
2023-04-15T09:15:49.082Z,100298.97
2023-04-15T09:18:36.871Z,100295.38
2023-04-15T09:21:23.821Z,100289.31
2023-04-15T09:24:08.653Z,100287.38
2023-04-15T09:26:55.605Z,100291.59
2023-04-15T09:29:41.800Z,100288.75
2023-04-15T09:32:27.658Z,100292.88
2023-04-15T09:35:13.069Z,100295.53
2023-04-15T09:38:09.645Z,100291.97
2023-04-15T09:40:55.027Z,100297.91
2023-04-15T09:43:40.744Z,100289.84
2023-04-15T09:46:46.589Z,100290.00
2023-04-15T09:49:31.758Z,100297.72
2023-04-15T09:52:17.325Z,100307.09
2023-04-15T09:55:02.573Z,100306.22
2023-04-15T09:57:48.008Z,100306.09
2023-04-15T10:00:33.338Z,100307.06
2023-04-15T10:03:30.074Z,100306.91
2023-04-15T10:06:16.872Z,100307.97
2023-04-15T10:09:02.178Z,100308.69
2023-04-15T10:11:49.420Z,100308.72
2023-04-15T10:14:38.543Z,100310.22
2023-04-15T10:17:27.693Z,100308.53
2023-04-15T10:20:16.093Z,100322.41
2023-04-15T10:23:02.056Z,100323.94
2023-04-15T10:25:47.470Z,100324.00
2023-04-15T10:28:32.671Z,100330.28
2023-04-15T10:31:19.922Z,100332.81
2023-04-15T10:34:06.733Z,100329.34
2023-04-15T10:36:54.912Z,100323.94
2023-04-15T10:39:42.309Z,100331.06
2023-04-15T10:42:33.796Z,100341.66
2023-04-15T10:45:19.243Z,100343.41
2023-04-15T10:48:08.359Z,100343.53
2023-04-15T10:50:57.756Z,100358.00
2023-04-15T10:53:43.026Z,100362.44
2023-04-15T10:56:31.115Z,100358.13
2023-04-15T10:59:16.968Z,100351.44
2023-04-15T11:02:04.039Z,100361.78
2023-04-15T11:05:00.280Z,100369.59
2023-04-15T11:07:54.712Z,100370.50
2023-04-15T11:10:39.528Z,100378.28
2023-04-15T11:13:27.116Z,100379.97
2023-04-15T11:16:15.267Z,100379.88
2023-04-15T11:19:01.580Z,100376.28
2023-04-15T11:21:47.023Z,100381.56
2023-04-15T11:24:33.122Z,100387.44
2023-04-15T11:27:23.702Z,100388.28
2023-04-15T11:30:22.713Z,100384.88
2023-04-15T11:33:11.025Z,100389.09
2023-04-15T11:35:55.783Z,100393.34
2023-04-15T11:38:46.839Z,100391.44
2023-04-15T11:41:31.842Z,100386.28
2023-04-15T11:44:18.254Z,100386.25
2023-04-15T11:47:22.526Z,100396.69
2023-04-15T11:50:23.712Z,100394.91
2023-04-15T11:53:11.070Z,100401.56
2023-04-15T11:55:56.341Z,100402.38
2023-04-15T11:58:44.801Z,100404.59
2023-04-15T12:01:39.673Z,100406.97
2023-04-15T12:04:25.928Z,100406.16
2023-04-15T12:07:12.529Z,100404.16
2023-04-15T12:09:58.134Z,100402.03
2023-04-15T12:12:43.099Z,100398.38
2023-04-15T12:15:28.289Z,100391.03
2023-04-15T12:18:19.238Z,100396.75
2023-04-15T12:21:11.549Z,100400.13
2023-04-15T12:23:58.054Z,100404.22
2023-04-15T12:26:49.482Z,100404.91
2023-04-15T12:29:40.112Z,100410.13
2023-04-15T12:32:25.244Z,100409.75
2023-04-15T12:35:10.089Z,100412.31
2023-04-15T12:37:54.872Z,100405.81
2023-04-15T12:40:39.802Z,100411.09
2023-04-15T12:43:25.662Z,100415.53
2023-04-15T12:46:10.842Z,100415.41
2023-04-15T12:48:57.289Z,100414.56
2023-04-15T12:51:42.745Z,100419.72
2023-04-15T12:54:29.207Z,100425.72
2023-04-15T12:57:15.423Z,100423.22
2023-04-15T13:00:00.282Z,100418.31
2023-04-15T13:02:45.730Z,100417.53
2023-04-15T13:05:30.905Z,100426.69
2023-04-15T13:08:16.294Z,100425.38
2023-04-15T13:11:01.615Z,100426.25
2023-04-15T13:13:47.103Z,100426.25
2023-04-15T13:16:32.992Z,100420.97
2023-04-15T13:19:18.069Z,100429.22
2023-04-15T13:22:03.426Z,100423.66
2023-04-15T13:24:48.485Z,100432.28
2023-04-15T13:27:33.980Z,100436.31
2023-04-15T13:30:19.167Z,100442.28
2023-04-15T13:33:05.071Z,100435.19
2023-04-15T13:35:50.358Z,100441.19
2023-04-15T13:38:35.308Z,100442.09
2023-04-15T13:41:21.441Z,100441.84
2023-04-15T13:44:07.388Z,100442.81
2023-04-15T13:46:52.923Z,100445.53
2023-04-15T13:49:38.095Z,100446.41
2023-04-15T13:52:23.523Z,100453.50
2023-04-15T13:55:19.062Z,100459.78
2023-04-15T13:58:06.295Z,100466.78
2023-04-15T14:00:51.469Z,100460.63
2023-04-15T14:03:38.518Z,100465.25
2023-04-15T14:06:23.476Z,100468.81
2023-04-15T14:09:08.958Z,100468.06
2023-04-15T14:11:53.732Z,100467.97
2023-04-15T14:14:40.110Z,100475.19
2023-04-15T14:17:25.565Z,100484.81
2023-04-15T14:20:10.929Z,100486.47
2023-04-15T14:22:55.990Z,100492.34
2023-04-15T14:25:41.206Z,100497.50
2023-04-15T14:28:26.772Z,100497.78
2023-04-15T14:31:11.837Z,100501.88
2023-04-15T14:33:59.747Z,100503.88
2023-04-15T14:36:45.125Z,100510.47
2023-04-15T14:39:30.008Z,100505.13
2023-04-15T14:42:14.934Z,100513.06
2023-04-15T14:45:03.170Z,100525.00
2023-04-15T14:47:49.880Z,100525.25
2023-04-15T14:50:35.793Z,100527.97
2023-04-15T14:53:24.010Z,100528.94
2023-04-15T14:56:11.508Z,100535.75
2023-04-15T14:58:56.187Z,100532.50
2023-04-15T15:01:41.180Z,100535.75
2023-04-15T15:04:27.348Z,100545.19
2023-04-15T15:07:12.287Z,100547.75
2023-04-15T15:09:57.386Z,100546.94
2023-04-15T15:12:42.623Z,100550.53
2023-04-15T15:15:29.073Z,100560.88
2023-04-15T15:18:14.330Z,100565.25
2023-04-15T15:21:01.133Z,100571.47
2023-04-15T15:23:48.267Z,100564.53
2023-04-15T15:26:33.626Z,100574.94
2023-04-15T15:29:18.890Z,100569.84
2023-04-15T15:32:04.017Z,100579.44
2023-04-15T15:34:49.793Z,100580.19
2023-04-15T15:37:35.921Z,100582.78
2023-04-15T15:40:21.691Z,100583.91
2023-04-15T15:43:06.951Z,100587.50
2023-04-15T15:45:55.232Z,100591.00
2023-04-15T15:48:43.346Z,100593.03
2023-04-15T15:51:32.138Z,100596.66
2023-04-15T15:54:18.719Z,100594.78
2023-04-15T15:57:03.964Z,100601.13
2023-04-15T15:59:51.135Z,100599.31
2023-04-15T16:03:04.265Z,100607.25
2023-04-15T16:05:42.618Z,100598.59
2023-04-15T16:08:27.574Z,100603.78
2023-04-15T16:11:14.495Z,100609.00
2023-04-15T16:13:59.407Z,100609.81
2023-04-15T16:16:45.887Z,100606.25
2023-04-15T16:19:31.273Z,100610.63
2023-04-15T16:22:22.313Z,100621.94
2023-04-15T16:25:15.034Z,100619.72
2023-04-15T16:28:08.344Z,100629.41
2023-04-15T16:30:57.981Z,100634.72
2023-04-15T16:33:44.272Z,100630.34
2023-04-15T16:36:31.755Z,100633.88
2023-04-15T16:39:16.923Z,100641.06
2023-04-15T16:42:04.144Z,100640.16
2023-04-15T16:44:51.460Z,100645.50
2023-04-15T16:47:36.632Z,100647.53
2023-04-15T16:50:21.420Z,100642.16
2023-04-15T16:53:07.544Z,100649.09
2023-04-15T16:55:53.286Z,100652.56
2023-04-15T16:58:39.504Z,100654.28
2023-04-15T17:01:24.923Z,100653.63
2023-04-15T17:04:13.914Z,100657.94
2023-04-15T17:06:58.909Z,100672.72
2023-04-15T17:09:44.427Z,100670.84
2023-04-15T17:12:30.296Z,100676.88
2023-04-15T17:15:18.276Z,100685.66
2023-04-15T17:18:06.009Z,100684.91
2023-04-15T17:20:50.772Z,100692.75
2023-04-15T17:23:37.169Z,100693.78
2023-04-15T17:26:23.696Z,100701.72
2023-04-15T17:29:09.579Z,100698.25
2023-04-15T17:31:55.147Z,100709.69
2023-04-15T17:34:49.951Z,100714.97
2023-04-15T17:37:36.728Z,100714.16
2023-04-15T17:40:23.388Z,100714.25
2023-04-15T17:43:12.715Z,100724.50
2023-04-15T17:45:58.727Z,100727.28
2023-04-15T17:48:43.766Z,100722.88
2023-04-15T17:51:31.890Z,100725.53
2023-04-15T17:54:19.087Z,100729.09
2023-04-15T17:57:04.309Z,100738.66
2023-04-15T17:59:49.769Z,100748.22
2023-04-15T18:02:37.095Z,100743.88
2023-04-15T18:05:22.440Z,100753.75
2023-04-15T18:08:07.424Z,100753.84
2023-04-15T18:10:53.119Z,100753.06
2023-04-15T18:13:38.088Z,100760.81
2023-04-15T18:16:22.991Z,100765.13
2023-04-15T18:19:08.054Z,100766.03
2023-04-15T18:21:53.459Z,100773.13
2023-04-15T18:24:42.095Z,100774.03
2023-04-15T18:27:27.444Z,100779.38
2023-04-15T18:30:14.057Z,100785.31
2023-04-15T18:33:00.650Z,100787.16
2023-04-15T18:35:47.535Z,100794.22
2023-04-15T18:38:33.618Z,100800.28
2023-04-15T18:41:26.006Z,100804.75
2023-04-15T18:44:13.098Z,100800.34
2023-04-15T18:46:58.644Z,100804.69
2023-04-15T18:49:44.016Z,100818.72
2023-04-15T18:52:30.276Z,100817.00
2023-04-15T18:55:19.196Z,100818.00
2023-04-15T18:58:10.050Z,100821.41
2023-04-15T19:00:56.287Z,100820.63
2023-04-15T19:03:43.871Z,100820.56
2023-04-15T19:09:29.042Z,100825.78
2023-04-15T19:12:19.535Z,100838.09
2023-04-15T19:15:05.405Z,100835.53
2023-04-15T19:17:50.392Z,100844.19
2023-04-15T19:20:39.974Z,100844.00
2023-04-15T19:23:27.025Z,100850.16
2023-04-15T19:26:14.926Z,100854.53
2023-04-15T19:28:59.766Z,100859.00
2023-04-15T19:31:46.782Z,100869.53
2023-04-15T19:34:31.925Z,100863.47
2023-04-15T19:37:17.608Z,100863.47
2023-04-15T19:40:03.300Z,100861.78
2023-04-15T19:42:49.831Z,100864.63
2023-04-15T19:45:37.252Z,100869.81
2023-04-15T19:48:24.971Z,100875.16
2023-04-15T19:51:09.906Z,100875.97
2023-04-15T19:54:00.846Z,100880.16
2023-04-15T19:56:47.875Z,100874.22
2023-04-15T19:59:33.398Z,100874.25
2023-04-15T20:02:18.693Z,100878.59
2023-04-15T20:05:04.739Z,100883.84
2023-04-15T20:07:52.918Z,100874.47
2023-04-15T20:10:38.279Z,100878.72
2023-04-15T20:13:23.505Z,100887.34
2023-04-15T20:16:13.286Z,100885.59
2023-04-15T20:19:08.416Z,100892.56
2023-04-15T20:21:54.252Z,100895.25
2023-04-15T20:24:39.065Z,100895.19
2023-04-15T20:27:23.957Z,100893.59
2023-04-15T20:30:13.998Z,100896.88
2023-04-15T20:32:59.754Z,100903.16
2023-04-15T20:35:47.084Z,100906.72
2023-04-15T20:38:32.258Z,100912.72
2023-04-15T20:41:17.468Z,100918.00
2023-04-15T20:44:10.253Z,100913.72
2023-04-15T20:46:56.326Z,100917.16
2023-04-15T20:49:41.297Z,100917.31
2023-04-15T20:52:26.329Z,100918.00
2023-04-15T20:55:13.184Z,100909.56
2023-04-15T20:57:59.284Z,100916.47
2023-04-15T21:00:45.284Z,100916.53
2023-04-15T21:03:30.733Z,100927.84
2023-04-15T21:06:16.229Z,100924.25
2023-04-15T21:09:01.193Z,100928.63
2023-04-15T21:14:39.507Z,100932.97
2023-04-15T21:17:24.858Z,100932.97
2023-04-15T21:20:13.388Z,100934.06
2023-04-15T21:23:00.814Z,100953.09
2023-04-15T21:25:45.881Z,100956.72
2023-04-15T21:28:32.178Z,100952.31
2023-04-15T21:31:18.535Z,100959.19
2023-04-15T21:34:07.834Z,100959.19
2023-04-15T21:36:55.165Z,100956.59
2023-04-15T21:39:40.548Z,100957.50
2023-04-15T21:42:26.422Z,100962.69
2023-04-15T21:45:11.491Z,100965.44
2023-04-15T21:48:07.619Z,100971.53
2023-04-15T21:51:01.564Z,100977.50
2023-04-15T21:53:49.994Z,100974.22
2023-04-15T21:56:35.279Z,100981.22
2023-04-15T21:59:21.735Z,100975.97
2023-04-15T22:02:06.921Z,100987.31
2023-04-15T22:04:52.233Z,100987.28
2023-04-15T22:07:37.598Z,100988.19
2023-04-15T22:10:23.041Z,100989.06
2023-04-15T22:13:11.304Z,100986.53
2023-04-15T22:15:56.906Z,100993.44
2023-04-15T22:18:41.705Z,101002.25
2023-04-15T22:21:27.229Z,101001.34
2023-04-15T22:24:33.960Z,101004.97
2023-04-15T22:27:17.747Z,101013.59
2023-04-15T22:30:05.238Z,101005.03
2023-04-15T22:32:50.627Z,101015.44
2023-04-15T22:35:38.507Z,101010.16
2023-04-15T22:38:24.490Z,101018.91
2023-04-15T22:41:09.484Z,101029.34
2023-04-15T22:43:54.321Z,101027.63
2023-04-15T22:46:39.394Z,101025.97
2023-04-15T22:49:26.291Z,101030.31
2023-04-15T22:52:17.115Z,101031.16
2023-04-15T22:55:08.932Z,101035.53
2023-04-15T22:57:54.322Z,101039.13
2023-04-15T23:00:39.333Z,101044.38
2023-04-15T23:03:24.816Z,101042.59
2023-04-15T23:06:10.255Z,101049.59
2023-04-15T23:08:55.807Z,101055.72
2023-04-15T23:11:41.157Z,101062.72
2023-04-15T23:14:27.910Z,101061.00
2023-04-15T23:17:13.734Z,101071.44
2023-04-15T23:19:58.571Z,101065.44
2023-04-15T23:22:43.632Z,101071.59
2023-04-15T23:25:28.618Z,101078.53
2023-04-15T23:28:14.933Z,101072.50
2023-04-15T23:31:00.708Z,101064.75
2023-04-15T23:33:45.645Z,101070.00
2023-04-15T23:36:31.850Z,101074.38
2023-04-15T23:39:16.963Z,101070.00
2023-04-15T23:42:01.935Z,101076.06
2023-04-15T23:44:46.707Z,101078.72
2023-04-15T23:47:31.583Z,101078.72
2023-04-15T23:50:16.386Z,101084.81
2023-04-15T23:53:02.722Z,101077.06
2023-04-15T23:55:48.605Z,101077.94
2023-04-15T23:58:34.590Z,101080.63
